Humberston, United Kingdom
Current Conditions -  °F | °C
As of 3:50 AM on Thursday 23 Oct 2014 (Local Time) from EGXS Reporting Station
Clear Clear  
Wind Chill:   Ceiling: Unl
Heat Index:   Visibility: 6mi
Dew Point:   Wind: 14mph
Humidity: 93%   Direction: 200°SSW
Pressure: 30.03"   Gusts: NA
Location:  53.53°N, 0.02°W
Report Text: EGXS 230250Z AUTO 20012KT 9999 // NCD 09/08 Q1017
Loading
Personal Weather Stations






























Interactive Weather Map
Tropical Storm Tracking
New forecast layout! Learn more

10-Day Weather Forecast

Advertisements
Track Severe Weather on mobile